Time;durP1;ratioP1;P1;durP2;ratioP2;P2;SDS_P1;SDS_P2;PMS_P1;PMS_P2;Temp;Humidity;BMP_temperature;BMP_pressure;BME280_temperature;BME280_humidity;BME280_pressure;Samples;Min_cycle;Max_cycle;Signal;HPM_P1;HPM_P2
2021/04/24 00:01:35;;;;;;;18.33;14.30;;;3.80;15.30;;;;;;5029018;28;20186;-61
2021/04/24 00:04:01;;;;;;;22.13;14.52;;;3.80;17.80;;;;;;5030206;28;20186;-62
2021/04/24 00:06:28;;;;;;;20.00;14.57;;;3.80;19.30;;;;;;5030460;28;20190;-61
2021/04/24 00:08:53;;;;;;;19.30;13.55;;;3.80;19.90;;;;;;5028878;28;20179;-61
2021/04/24 00:11:21;;;;;;;19.40;14.07;;;3.70;21.60;;;;;;5031111;28;20252;-61
2021/04/24 00:13:47;;;;;;;23.88;15.07;;;3.70;23.80;;;;;;5033208;28;20190;-61
2021/04/24 00:16:13;;;;;;;21.53;15.13;;;3.80;23.40;;;;;;5030337;28;20199;-60
2021/04/24 00:18:38;;;;;;;22.65;16.20;;;3.70;24.80;;;;;;5031428;28;20440;-62
2021/04/24 00:21:05;;;;;;;20.43;15.87;;;3.60;23.80;;;;;;5029951;28;20187;-61
2021/04/24 00:23:31;;;;;;;21.92;15.32;;;3.50;26.40;;;;;;5030740;28;20253;-61
2021/04/24 00:25:57;;;;;;;20.10;15.83;;;3.40;30.40;;;;;;5029932;28;20278;-61
2021/04/24 00:28:23;;;;;;;21.45;14.98;;;3.40;32.80;;;;;;5031262;28;20813;-61
2021/04/24 00:30:49;;;;;;;19.17;14.60;;;3.30;33.80;;;;;;5030397;28;20261;-62
2021/04/24 00:33:15;;;;;;;20.90;15.23;;;3.30;35.10;;;;;;5030407;28;20189;-61
2021/04/24 00:35:40;;;;;;;22.60;15.60;;;3.30;38.40;;;;;;5029823;28;20215;-62
2021/04/24 00:38:07;;;;;;;21.60;14.00;;;3.30;40.10;;;;;;5030848;28;20186;-61
2021/04/24 00:40:33;;;;;;;18.40;14.32;;;3.20;43.60;;;;;;5030443;28;20445;-61
2021/04/24 00:42:58;;;;;;;20.97;15.20;;;3.20;46.20;;;;;;5032463;28;20182;-66
2021/04/24 00:45:24;;;;;;;21.43;14.50;;;3.20;47.00;;;;;;5030803;28;20476;-61
2021/04/24 00:47:52;;;;;;;21.83;13.95;;;3.20;46.30;;;;;;5032861;28;20233;-62
2021/04/24 00:50:22;;;;;;;21.30;14.15;;;3.20;46.00;;;;;;5029545;28;20254;-61
2021/04/24 00:52:47;;;;;;;18.88;14.75;;;3.20;45.70;;;;;;5032632;28;20183;-61
2021/04/24 00:55:14;;;;;;;20.67;14.80;;;3.20;44.70;;;;;;5029778;28;20201;-61
2021/04/24 00:57:40;;;;;;;20.50;14.52;;;3.20;45.50;;;;;;5031664;28;20190;-61
2021/04/24 01:00:09;;;;;;;19.58;14.27;;;3.10;46.80;;;;;;5031601;28;20182;-61
2021/04/24 01:02:35;;;;;;;23.30;14.20;;;3.00;49.00;;;;;;5032608;28;20682;-61
2021/04/24 01:05:00;;;;;;;19.13;14.53;;;3.00;51.90;;;;;;5029741;28;20186;-63
2021/04/24 01:07:27;;;;;;;20.73;14.20;;;2.90;54.30;;;;;;5032518;28;20424;-62
2021/04/24 01:09:53;;;;;;;20.63;14.52;;;2.90;58.00;;;;;;5030238;28;20180;-61
2021/04/24 01:12:18;;;;;;;22.80;14.10;;;2.90;60.00;;;;;;5032412;28;20194;-62
2021/04/24 01:14:44;;;;;;;19.23;14.67;;;2.90;61.10;;;;;;5035124;28;20480;-62
2021/04/24 01:17:09;;;;;;;20.00;14.30;;;2.90;64.60;;;;;;5031853;28;20242;-61
2021/04/24 01:19:35;;;;;;;19.43;15.20;;;2.90;67.50;;;;;;5029968;28;20194;-61
2021/04/24 01:22:08;;;;;;;21.77;15.07;;;2.80;67.40;;;;;;5031644;28;20635;-62
2021/04/24 01:24:34;;;;;;;21.30;14.32;;;2.70;70.10;;;;;;5031266;28;20632;-61
2021/04/24 01:27:00;;;;;;;19.40;14.20;;;2.70;77.00;;;;;;5030984;28;20182;-61
2021/04/24 01:29:26;;;;;;;22.83;14.30;;;2.70;80.90;;;;;;5030909;28;21003;-61
2021/04/24 01:31:51;;;;;;;20.00;14.03;;;2.70;84.60;;;;;;5032001;28;20858;-62
2021/04/24 01:34:17;;;;;;;23.47;15.03;;;2.60;88.20;;;;;;5030749;28;20201;-62
2021/04/24 01:36:42;;;;;;;22.93;14.60;;;2.60;88.40;;;;;;5031058;28;20217;-61
2021/04/24 01:39:08;;;;;;;25.07;13.47;;;2.70;89.40;;;;;;5031014;28;20189;-61
2021/04/24 01:41:34;;;;;;;24.93;14.63;;;2.60;86.80;;;;;;5029680;28;20246;-61
2021/04/24 01:44:00;;;;;;;17.93;13.23;;;2.60;88.60;;;;;;5027366;28;20280;-61
2021/04/24 01:46:25;;;;;;;19.00;13.57;;;2.50;90.00;;;;;;5026660;28;20182;-61
2021/04/24 01:48:51;;;;;;;22.30;14.30;;;2.50;90.30;;;;;;5044226;28;21009;-62
2021/04/24 01:51:17;;;;;;;21.85;15.00;;;2.50;90.10;;;;;;5025366;28;20173;-62
2021/04/24 01:53:43;;;;;;;17.52;13.45;;;2.50;92.50;;;;;;5027080;28;20522;-63
2021/04/24 01:56:10;;;;;;;20.53;13.70;;;2.50;92.60;;;;;;5029480;28;20252;-62
2021/04/24 01:58:37;;;;;;;20.02;13.82;;;2.50;92.90;;;;;;5028920;28;20421;-62
2021/04/24 02:01:07;;;;;;;18.73;13.63;;;2.50;92.70;;;;;;5024322;28;20186;-61
2021/04/24 02:03:33;;;;;;;20.73;13.57;;;2.40;94.00;;;;;;5028310;28;20596;-61
2021/04/24 02:05:59;;;;;;;21.33;14.50;;;2.40;93.50;;;;;;5029269;28;20233;-62
2021/04/24 02:08:31;;;;;;;21.43;13.80;;;2.40;93.10;;;;;;5026865;28;20560;-62
2021/04/24 02:10:57;;;;;;;20.63;14.20;;;2.30;93.10;;;;;;5027734;28;20431;-62
2021/04/24 02:13:27;;;;;;;22.10;13.60;;;2.30;93.80;;;;;;5027333;28;20188;-62
2021/04/24 02:15:53;;;;;;;19.27;13.38;;;2.30;93.10;;;;;;5032675;28;20626;-61
2021/04/24 02:18:19;;;;;;;21.50;14.37;;;2.30;94.70;;;;;;5028682;28;20186;-62
2021/04/24 02:20:45;;;;;;;20.10;13.27;;;2.30;96.10;;;;;;5028145;28;20515;-61
2021/04/24 02:23:13;;;;;;;19.35;13.85;;;2.30;97.10;;;;;;5028796;28;20598;-61
2021/04/24 02:25:39;;;;;;;19.67;13.40;;;2.20;98.20;;;;;;5029666;28;20174;-61
2021/04/24 02:28:06;;;;;;;20.35;14.00;;;2.20;99.70;;;;;;5028484;28;20917;-62
2021/04/24 02:30:32;;;;;;;20.55;14.20;;;2.20;99.90;;;;;;5028031;28;20237;-62
2021/04/24 02:32:57;;;;;;;18.88;14.00;;;2.20;99.90;;;;;;5043885;28;20265;-62
2021/04/24 02:35:31;;;;;;;21.97;14.20;;;2.20;99.90;;;;;;5029445;28;20616;-65
2021/04/24 02:37:57;;;;;;;21.65;13.68;;;2.20;99.90;;;;;;5027374;28;20269;-61
2021/04/24 02:40:23;;;;;;;19.13;13.57;;;2.20;99.60;;;;;;5029250;28;20317;-62
2021/04/24 02:42:48;;;;;;;17.87;13.17;;;2.10;99.90;;;;;;5022318;28;20186;-62
2021/04/24 02:45:15;;;;;;;20.57;14.50;;;2.10;99.90;;;;;;5027878;28;20559;-62
2021/04/24 02:47:42;;;;;;;20.02;14.23;;;2.00;99.90;;;;;;5028081;28;20830;-61
2021/04/24 02:50:11;;;;;;;17.20;13.25;;;2.00;99.90;;;;;;5027344;28;20174;-62
2021/04/24 02:52:37;;;;;;;20.88;13.32;;;2.00;99.90;;;;;;5027596;28;20186;-61
2021/04/24 02:55:06;;;;;;;19.33;14.60;;;2.00;99.90;;;;;;5029107;28;20228;-62
2021/04/24 02:57:31;;;;;;;21.48;13.98;;;2.00;99.90;;;;;;5028507;28;20278;-62
2021/04/24 02:59:57;;;;;;;19.57;14.70;;;2.00;99.90;;;;;;5030177;28;20181;-62
2021/04/24 03:02:23;;;;;;;22.13;15.17;;;2.00;99.90;;;;;;5032675;28;20224;-62
2021/04/24 03:04:48;;;;;;;20.20;13.83;;;2.00;99.90;;;;;;5031457;28;20292;-61
2021/04/24 03:07:14;;;;;;;22.03;13.93;;;2.00;99.90;;;;;;5023508;28;20196;-61
2021/04/24 03:09:40;;;;;;;24.37;14.40;;;2.10;99.90;;;;;;5032944;28;20225;-61
2021/04/24 03:12:07;;;;;;;24.07;14.87;;;2.10;99.90;;;;;;5032517;28;20212;-61
2021/04/24 03:14:33;;;;;;;20.60;13.80;;;2.10;99.90;;;;;;5034477;28;20192;-61
2021/04/24 03:16:58;;;;;;;20.23;13.50;;;2.10;99.90;;;;;;5032257;28;20209;-61
2021/04/24 03:19:24;;;;;;;19.83;13.70;;;2.20;99.90;;;;;;5032506;28;20470;-62
2021/04/24 03:21:49;;;;;;;17.90;12.87;;;2.20;99.90;;;;;;5026735;28;20882;-62
2021/04/24 03:24:15;;;;;;;19.80;14.17;;;2.20;99.90;;;;;;5032017;28;20186;-63
2021/04/24 03:26:40;;;;;;;18.23;12.83;;;2.30;99.90;;;;;;5031016;28;20280;-62
2021/04/24 03:29:06;;;;;;;21.90;13.77;;;2.30;99.90;;;;;;5031080;28;20677;-61
2021/04/24 03:31:32;;;;;;;21.93;14.37;;;2.30;99.90;;;;;;5030274;28;20540;-61
2021/04/24 03:33:58;;;;;;;20.93;13.77;;;2.30;99.90;;;;;;5031794;28;20185;-61
2021/04/24 03:36:23;;;;;;;19.63;13.10;;;2.30;99.90;;;;;;5030214;28;20643;-61
2021/04/24 03:38:49;;;;;;;19.43;13.57;;;2.30;99.90;;;;;;5030569;28;20278;-60
2021/04/24 03:41:14;;;;;;;20.53;12.80;;;2.30;99.90;;;;;;5031388;28;20191;-61
2021/04/24 03:43:40;;;;;;;20.90;12.27;;;2.30;99.90;;;;;;5030654;28;20210;-61
2021/04/24 03:46:06;;;;;;;20.90;12.90;;;2.30;99.90;;;;;;5031486;28;20270;-61
2021/04/24 03:48:32;;;;;;;17.77;12.40;;;2.30;99.90;;;;;;5030535;28;20898;-61
2021/04/24 03:50:59;;;;;;;21.38;12.98;;;2.30;99.90;;;;;;5034756;28;20298;-61
2021/04/24 03:53:25;;;;;;;24.45;14.23;;;2.30;99.90;;;;;;5031362;28;20190;-61
2021/04/24 03:55:50;;;;;;;18.70;13.20;;;2.30;99.90;;;;;;5021129;28;20221;-61
2021/04/24 03:58:16;;;;;;;19.80;13.73;;;2.20;99.90;;;;;;5031246;28;20631;-61
2021/04/24 04:00:42;;;;;;;20.03;13.43;;;2.20;99.90;;;;;;5031017;28;20185;-60
2021/04/24 04:03:09;;;;;;;19.30;13.53;;;2.20;99.90;;;;;;5030026;28;20529;-60
2021/04/24 04:05:39;;;;;;;20.80;12.20;;;2.20;99.90;;;;;;5027876;28;20688;-60
2021/04/24 04:08:06;;;;;;;29.88;13.38;;;2.20;99.90;;;;;;5029884;28;20221;-61
2021/04/24 04:10:33;;;;;;;21.02;13.80;;;2.20;99.90;;;;;;5031448;28;20521;-60
2021/04/24 04:12:59;;;;;;;18.77;13.77;;;2.30;99.90;;;;;;5029194;28;20200;-60
2021/04/24 04:15:26;;;;;;;18.37;13.37;;;2.20;99.90;;;;;;5032487;28;20264;-61
2021/04/24 04:18:07;;;;;;;21.02;13.50;;;2.30;99.90;;;;;;5029937;28;20464;-60
2021/04/24 04:20:34;;;;;;;18.80;14.27;;;2.30;99.90;;;;;;5022483;28;20181;-60
2021/04/24 04:23:00;;;;;;;18.23;12.93;;;2.40;99.90;;;;;;5030532;28;20206;-60
2021/04/24 04:25:26;;;;;;;22.50;13.23;;;2.40;99.90;;;;;;5029595;28;20186;-61
2021/04/24 04:27:53;;;;;;;19.58;12.95;;;2.40;99.90;;;;;;5031009;28;20448;-60
2021/04/24 04:30:19;;;;;;;17.92;13.23;;;2.40;99.90;;;;;;5025972;28;20250;-60
2021/04/24 04:32:45;;;;;;;19.30;12.90;;;2.50;99.90;;;;;;5029124;28;20186;-60
2021/04/24 04:35:13;;;;;;;16.90;12.53;;;2.50;99.90;;;;;;5030168;28;20643;-61
2021/04/24 04:37:39;;;;;;;18.00;12.50;;;2.60;99.90;;;;;;5029387;28;20329;-61
2021/04/24 04:40:06;;;;;;;15.57;12.40;;;2.70;99.90;;;;;;5029141;28;20182;-61
2021/04/24 04:42:31;;;;;;;16.63;12.45;;;2.70;99.90;;;;;;5031229;28;20278;-60
2021/04/24 04:44:57;;;;;;;14.50;11.77;;;2.80;99.90;;;;;;5029541;28;20297;-60
2021/04/24 04:47:22;;;;;;;23.07;14.50;;;2.90;99.90;;;;;;5029131;28;21039;-60
2021/04/24 04:49:48;;;;;;;18.27;12.47;;;2.90;99.90;;;;;;5027826;28;20205;-60
2021/04/24 04:52:14;;;;;;;19.10;14.17;;;3.00;99.90;;;;;;5028635;28;20224;-60
2021/04/24 04:54:39;;;;;;;19.03;12.00;;;3.00;98.80;;;;;;5030269;28;20317;-61
2021/04/24 04:57:05;;;;;;;16.10;11.63;;;3.20;97.90;;;;;;5028681;28;20210;-61
2021/04/24 04:59:31;;;;;;;16.40;11.30;;;3.30;95.80;;;;;;5029972;28;20206;-61
2021/04/24 05:01:57;;;;;;;16.47;11.83;;;3.40;92.30;;;;;;5028679;28;20484;-61
2021/04/24 05:04:23;;;;;;;15.38;11.07;;;3.40;84.10;;;;;;5030971;28;20182;-61
2021/04/24 05:06:49;;;;;;;14.73;10.93;;;3.50;82.50;;;;;;5028842;28;20187;-59
2021/04/24 05:09:15;;;;;;;15.73;11.05;;;3.50;78.10;;;;;;5029393;28;20642;-60
2021/04/24 05:11:41;;;;;;;16.85;12.48;;;3.60;73.90;;;;;;5028788;28;20665;-61
2021/04/24 05:14:07;;;;;;;18.40;12.63;;;3.70;70.80;;;;;;5030702;28;20191;-61
2021/04/24 05:16:32;;;;;;;16.27;11.60;;;3.80;69.70;;;;;;5030370;28;20676;-61
2021/04/24 05:18:58;;;;;;;13.73;10.87;;;3.80;59.50;;;;;;5027104;28;20178;-60
2021/04/24 05:21:23;;;;;;;19.37;12.00;;;3.80;54.80;;;;;;5029121;28;20182;-61
2021/04/24 05:23:49;;;;;;;17.77;11.60;;;3.80;53.70;;;;;;5029887;28;20186;-61
2021/04/24 05:26:14;;;;;;;20.00;12.40;;;3.90;54.10;;;;;;5027973;28;20961;-61
2021/04/24 05:28:40;;;;;;;15.97;11.83;;;3.90;52.10;;;;;;5028523;28;20191;-60
2021/04/24 05:31:06;;;;;;;17.13;12.90;;;3.90;49.50;;;;;;5028613;28;20232;-61
2021/04/24 05:33:32;;;;;;;18.10;12.68;;;4.10;42.40;;;;;;5031228;28;20186;-61
2021/04/24 05:36:01;;;;;;;15.83;12.10;;;4.20;38.10;;;;;;5029643;28;20695;-61
2021/04/24 05:38:27;;;;;;;14.57;11.23;;;4.40;33.50;;;;;;5028008;28;20175;-61
2021/04/24 05:40:53;;;;;;;15.25;11.30;;;4.60;29.40;;;;;;5030237;28;20179;-61
2021/04/24 05:43:18;;;;;;;14.80;12.20;;;4.80;23.90;;;;;;5026034;28;20197;-58
2021/04/24 05:45:44;;;;;;;14.60;12.30;;;5.00;9.30;;;;;;5029995;28;20178;-61
2021/04/24 05:48:10;;;;;;;17.10;12.90;;;5.00;5.50;;;;;;5044669;28;20559;-61
2021/04/24 05:50:35;;;;;;;13.70;10.80;;;5.10;1.60;;;;;;5029267;28;20187;-61
2021/04/24 05:53:01;;;;;;;16.60;11.60;;;5.40;1.00;;;;;;5025863;28;20518;-62
2021/04/24 05:55:26;;;;;;;18.57;12.27;;;5.50;1.00;;;;;;5029475;28;20202;-61
2021/04/24 05:57:52;;;;;;;17.27;11.73;;;5.70;1.00;;;;;;5028094;28;20192;-60
2021/04/24 06:00:20;;;;;;;13.60;11.30;;;5.80;1.00;;;;;;5027757;28;20264;-62
2021/04/24 06:02:47;;;;;;;17.10;11.50;;;5.90;1.00;;;;;;5028998;28;20237;-61
2021/04/24 06:05:12;;;;;;;13.48;10.30;;;6.00;1.00;;;;;;5028806;28;20472;-61
2021/04/24 06:07:39;;;;;;;13.43;10.90;;;6.10;1.00;;;;;;5028357;28;20187;-61
2021/04/24 06:10:07;;;;;;;18.80;11.30;;;6.20;1.00;;;;;;5022093;28;20184;-61
2021/04/24 06:12:33;;;;;;;15.57;11.83;;;6.40;1.00;;;;;;5007235;28;20436;-61
2021/04/24 06:14:58;;;;;;;14.33;11.70;;;6.50;1.00;;;;;;5002676;28;20474;-61
2021/04/24 06:17:25;;;;;;;16.87;12.10;;;6.60;1.00;;;;;;5011766;28;20583;-61
2021/04/24 06:19:50;;;;;;;17.60;11.40;;;6.80;1.00;;;;;;5014426;28;20217;-61
2021/04/24 06:22:16;;;;;;;17.70;12.30;;;6.90;1.00;;;;;;5002768;28;20529;-61
2021/04/24 06:24:41;;;;;;;16.20;11.40;;;7.00;1.00;;;;;;5002879;28;20187;-61
2021/04/24 06:27:07;;;;;;;14.90;11.70;;;7.20;1.00;;;;;;5005330;28;20238;-62
2021/04/24 06:29:33;;;;;;;14.80;11.00;;;7.40;1.00;;;;;;5015466;28;20235;-61
2021/04/24 06:31:58;;;;;;;14.77;11.30;;;7.60;1.00;;;;;;5013101;28;20186;-61
2021/04/24 06:34:24;;;;;;;13.47;9.60;;;7.70;1.00;;;;;;5018719;28;20855;-61
2021/04/24 06:36:50;;;;;;;10.00;8.83;;;8.00;1.00;;;;;;5006493;28;20292;-61
2021/04/24 06:39:15;;;;;;;9.73;8.40;;;8.10;1.00;;;;;;5008550;28;20272;-60
2021/04/24 06:41:41;;;;;;;12.63;8.87;;;8.30;99.90;;;;;;5001515;28;20890;-61
2021/04/24 06:44:06;;;;;;;13.77;9.10;;;8.40;1.00;;;;;;5007960;28;20194;-61
2021/04/24 06:46:32;;;;;;;13.40;9.40;;;8.50;1.00;;;;;;5015412;28;20186;-61
2021/04/24 06:48:58;;;;;;;14.43;9.83;;;8.60;99.90;;;;;;5018675;28;20637;-61
2021/04/24 06:51:23;;;;;;;13.93;9.10;;;8.90;1.00;;;;;;5006635;28;20257;-61
2021/04/24 06:53:51;;;;;;;10.20;8.17;;;9.00;1.00;;;;;;5012702;28;20280;-60
2021/04/24 06:56:17;;;;;;;10.13;7.57;;;9.10;99.90;;;;;;5002458;28;20290;-60
2021/04/24 06:58:43;;;;;;;9.97;7.20;;;9.40;41.20;;;;;;5009177;28;20437;-60
2021/04/24 07:01:08;;;;;;;10.43;7.23;;;9.50;1.00;;;;;;5014577;28;20214;-58
2021/04/24 07:03:35;;;;;;;13.50;7.43;;;9.60;1.00;;;;;;5026238;28;20182;-61
2021/04/24 07:06:00;;;;;;;10.67;7.20;;;9.60;1.00;;;;;;5026159;28;20202;-60
2021/04/24 07:08:26;;;;;;;11.40;7.97;;;9.50;99.90;;;;;;5027016;28;20474;-60
2021/04/24 07:10:51;;;;;;;11.90;8.20;;;9.50;99.90;;;;;;5027737;28;20210;-62
2021/04/24 07:13:17;;;;;;;9.10;7.40;;;9.70;99.90;;;;;;5027951;28;20178;-60
2021/04/24 07:15:43;;;;;;;9.20;6.43;;;9.80;99.90;;;;;;5027433;28;20212;-61
2021/04/24 07:18:08;;;;;;;8.83;7.10;;;10.00;99.90;;;;;;5028272;28;20182;-61
2021/04/24 07:20:34;;;;;;;9.90;7.10;;;10.00;99.90;;;;;;5027581;28;20175;-62
2021/04/24 07:22:59;;;;;;;11.80;8.27;;;10.00;99.90;;;;;;5027902;28;20187;-60
2021/04/24 07:25:25;;;;;;;13.83;8.13;;;10.10;99.90;;;;;;5027593;28;20179;-61
2021/04/24 07:27:51;;;;;;;11.70;7.80;;;10.20;29.70;;;;;;5027282;28;20218;-60
2021/04/24 07:30:17;;;;;;;9.90;7.57;;;10.30;58.50;;;;;;5015834;28;20257;-61
2021/04/24 07:32:42;;;;;;;9.30;7.60;;;10.50;2.70;;;;;;5013364;28;20704;-62
2021/04/24 07:35:08;;;;;;;10.27;7.30;;;10.50;1.00;;;;;;5027384;28;20429;-60
2021/04/24 07:37:35;;;;;;;9.27;7.30;;;10.50;1.00;;;;;;5020975;28;20214;-60
2021/04/24 07:40:01;;;;;;;10.67;7.70;;;10.60;1.00;;;;;;5020512;28;21197;-61
2021/04/24 07:42:26;;;;;;;8.97;7.73;;;10.60;1.00;;;;;;5021116;28;20413;-61
2021/04/24 07:44:52;;;;;;;8.20;7.03;;;10.60;1.00;;;;;;5021928;28;20167;-61
2021/04/24 07:47:17;;;;;;;12.07;7.70;;;10.80;1.00;;;;;;5025804;28;20198;-61
2021/04/24 07:49:43;;;;;;;10.63;7.27;;;10.90;1.00;;;;;;5023139;28;20222;-60
2021/04/24 07:52:10;;;;;;;8.83;7.20;;;11.00;1.00;;;;;;5028300;28;20206;-60
2021/04/24 07:54:41;;;;;;;11.80;8.90;;;11.10;1.00;;;;;;5023314;28;20202;-59
2021/04/24 07:57:09;;;;;;;12.73;7.70;;;11.30;1.00;;;;;;5027127;28;20580;-60
2021/04/24 07:59:34;;;;;;;8.00;7.17;;;11.30;1.00;;;;;;5022799;28;20544;-60
2021/04/24 08:02:00;;;;;;;8.77;7.57;;;11.40;1.00;;;;;;5038799;28;20862;-59
2021/04/24 08:04:25;;;;;;;8.87;7.60;;;11.50;1.00;;;;;;5025040;28;20210;-60
2021/04/24 08:06:51;;;;;;;11.90;7.70;;;11.70;1.00;;;;;;5025091;28;20197;-59
2021/04/24 08:09:17;;;;;;;8.33;7.50;;;11.70;1.00;;;;;;5026134;28;20179;-59
2021/04/24 08:11:42;;;;;;;10.27;8.17;;;11.80;1.00;;;;;;5023078;28;20261;-60
2021/04/24 08:14:08;;;;;;;9.77;8.77;;;11.80;1.00;;;;;;5024159;28;20186;-59
2021/04/24 08:16:34;;;;;;;8.57;7.67;;;11.80;1.00;;;;;;5024100;28;20205;-61
2021/04/24 08:18:59;;;;;;;9.50;7.50;;;12.00;1.00;;;;;;5028509;28;20260;-60
2021/04/24 08:21:25;;;;;;;12.00;7.90;;;11.90;1.00;;;;;;5029044;28;20471;-63
2021/04/24 08:23:58;;;;;;;12.07;8.00;;;12.20;1.00;;;;;;5022782;28;20313;-61
2021/04/24 08:26:24;;;;;;;8.67;7.20;;;12.30;1.00;;;;;;5028866;28;20175;-61
2021/04/24 08:28:50;;;;;;;10.87;7.30;;;12.50;1.00;;;;;;5029258;28;20766;-60
2021/04/24 08:31:16;;;;;;;8.70;7.10;;;12.40;1.00;;;;;;5028883;28;20415;-64
2021/04/24 08:33:42;;;;;;;9.03;6.80;;;12.60;1.00;;;;;;5029186;28;20214;-61
2021/04/24 08:36:08;;;;;;;7.93;6.67;;;12.80;1.00;;;;;;5026873;28;20914;-59
2021/04/24 08:38:33;;;;;;;8.37;7.37;;;12.90;1.00;;;;;;5029104;28;20241;-61
2021/04/24 08:41:01;;;;;;;8.07;6.60;;;12.80;1.00;;;;;;5029088;28;20756;-62
2021/04/24 08:43:27;;;;;;;9.20;7.30;;;13.00;1.00;;;;;;5029146;28;20184;-60
2021/04/24 08:45:55;;;;;;;10.13;7.70;;;13.00;1.00;;;;;;5028919;28;20425;-60
2021/04/24 08:48:21;;;;;;;8.90;7.17;;;13.10;1.00;;;;;;5028093;28;20287;-61
2021/04/24 08:50:47;;;;;;;8.63;6.33;;;13.30;1.00;;;;;;5029031;28;20417;-60
2021/04/24 08:53:16;;;;;;;8.23;6.67;;;13.50;1.00;;;;;;5028879;28;20198;-61
2021/04/24 08:55:42;;;;;;;9.10;7.33;;;13.40;99.90;;;;;;5024159;28;20441;-59
2021/04/24 08:58:08;;;;;;;8.43;6.77;;;13.50;99.90;;;;;;5018167;28;20425;-62
2021/04/24 09:00:37;;;;;;;8.50;6.63;;;13.70;99.90;;;;;;5022970;28;20201;-59
2021/04/24 09:03:08;;;;;;;7.80;6.50;;;13.70;99.90;;;;;;5013443;28;20631;-60
2021/04/24 09:05:34;;;;;;;8.17;6.20;;;13.80;99.90;;;;;;5003051;28;20456;-64
2021/04/24 09:08:05;;;;;;;7.60;6.30;;;14.00;99.90;;;;;;5003396;28;20418;-63
2021/04/24 09:10:41;;;;;;;9.90;6.90;;;14.20;99.90;;;;;;5004597;28;20190;-65
2021/04/24 09:13:07;;;;;;;8.90;6.50;;;14.40;99.90;;;;;;5002436;28;20794;-64
2021/04/24 09:15:33;;;;;;;7.60;6.23;;;14.40;99.90;;;;;;5003771;28;20437;-65
2021/04/24 09:18:03;;;;;;;6.80;5.80;;;14.30;99.90;;;;;;5003031;28;20445;-63
2021/04/24 09:20:42;;;;;;;8.67;6.60;;;14.40;99.90;;;;;;5006514;28;20826;-62
2021/04/24 09:23:08;;;;;;;7.17;5.80;;;14.70;99.90;;;;;;5010531;28;20506;-61
2021/04/24 09:25:43;;;;;;;7.40;5.87;;;14.80;99.90;;;;;;5005785;28;20463;-62
2021/04/24 09:28:12;;;;;;;7.07;5.90;;;15.20;99.90;;;;;;5004245;28;20647;-66
2021/04/24 09:30:40;;;;;;;7.43;6.10;;;15.30;99.90;;;;;;5003518;28;20989;-61
2021/04/24 09:33:12;;;;;;;7.30;6.60;;;15.50;99.90;;;;;;5005504;28;21193;-62
2021/04/24 09:35:44;;;;;;;6.90;6.20;;;14.90;99.90;;;;;;5005300;28;21273;-62
2021/04/24 09:38:19;;;;;;;6.97;6.23;;;14.90;99.90;;;;;;5002504;28;20445;-62
2021/04/24 09:41:00;;;;;;;8.43;7.37;;;14.70;99.90;;;;;;5001902;28;20511;-61
2021/04/24 09:43:26;;;;;;;7.97;6.40;;;14.60;99.90;;;;;;5002072;28;20500;-62
2021/04/24 09:45:51;;;;;;;7.00;6.27;;;14.30;99.90;;;;;;5004132;28;20535;-64
2021/04/24 09:48:23;;;;;;;8.47;6.47;;;14.30;99.90;;;;;;5014042;28;20190;-64
2021/04/24 09:50:49;;;;;;;8.67;6.90;;;14.70;99.90;;;;;;5005199;28;20944;-63
2021/04/24 09:53:26;;;;;;;6.50;5.80;;;14.70;99.90;;;;;;5001922;28;20473;-62
2021/04/24 09:55:53;;;;;;;7.27;6.17;;;15.00;99.90;;;;;;5002284;28;20565;-62
2021/04/24 09:58:34;;;;;;;6.33;5.73;;;15.20;99.90;;;;;;5003869;28;20435;-61
2021/04/24 10:01:27;;;;;;;6.67;5.67;;;15.50;99.90;;;;;;5002609;28;20433;-62
2021/04/24 10:03:54;;;;;;;7.40;6.67;;;16.10;99.90;;;;;;5002608;28;20487;-61
2021/04/24 10:06:31;;;;;;;7.60;6.10;;;16.70;99.90;;;;;;5001323;28;20461;-62
2021/04/24 10:09:10;;;;;;;7.50;6.10;;;17.20;99.90;;;;;;5002863;28;20441;-62
2021/04/24 10:11:37;;;;;;;7.07;6.10;;;17.90;99.90;;;;;;5001023;28;20512;-62
2021/04/24 10:14:02;;;;;;;7.17;5.80;;;18.20;99.90;;;;;;5004355;28;20441;-62
2021/04/24 10:16:33;;;;;;;5.83;5.33;;;18.20;99.90;;;;;;5011229;28;20835;-62
2021/04/24 10:19:04;;;;;;;6.70;5.73;;;18.10;99.90;;;;;;5003267;28;20196;-63
2021/04/24 10:21:30;;;;;;;8.83;6.50;;;18.20;99.90;;;;;;5018561;28;20446;-62
2021/04/24 10:23:57;;;;;;;6.30;5.80;;;18.40;99.90;;;;;;5014846;28;20846;-62
2021/04/24 10:26:24;;;;;;;8.37;6.97;;;18.50;99.90;;;;;;5041675;28;20473;-62
2021/04/24 10:28:51;;;;;;;7.13;6.50;;;18.40;99.90;;;;;;5029564;28;20462;-63
2021/04/24 10:31:18;;;;;;;7.40;6.53;;;18.70;99.90;;;;;;5025563;28;20865;-62
2021/04/24 10:33:44;;;;;;;6.87;6.27;;;19.00;99.90;;;;;;5024581;28;20409;-62
2021/04/24 10:36:11;;;;;;;7.77;7.03;;;19.50;99.90;;;;;;5021933;28;20476;-62
2021/04/24 10:38:45;;;;;;;7.83;7.07;;;19.90;99.90;;;;;;5025797;28;20467;-62
2021/04/24 10:41:12;;;;;;;7.53;6.80;;;19.80;99.90;;;;;;5023758;28;20761;-62
2021/04/24 10:43:38;;;;;;;6.83;6.23;;;19.40;99.90;;;;;;5019366;28;20466;-65
2021/04/24 10:46:27;;;;;;;7.30;6.50;;;19.20;99.90;;;;;;5023999;28;20440;-64
2021/04/24 10:49:16;;;;;;;7.37;6.60;;;19.00;99.90;;;;;;5020267;28;20948;-64
2021/04/24 10:52:06;;;;;;;7.40;6.70;;;19.50;99.90;;;;;;5028210;28;20427;-65
2021/04/24 10:54:38;;;;;;;7.93;6.47;;;19.10;99.90;;;;;;5025552;28;20444;-64
2021/04/24 10:57:38;;;;;;;8.27;7.43;;;18.80;99.90;;;;;;5021064;28;20559;-65
2021/04/24 11:00:07;;;;;;;7.83;7.13;;;18.50;99.90;;;;;;5026464;28;20433;-63
2021/04/24 11:02:46;;;;;;;6.83;6.23;;;18.70;99.90;;;;;;5027810;28;20416;-64
2021/04/24 11:05:16;;;;;;;8.13;7.33;;;18.60;99.90;;;;;;5027081;28;20489;-64
2021/04/24 11:07:41;;;;;;;8.83;6.67;;;18.30;99.90;;;;;;5026235;28;20894;-65
2021/04/24 11:10:13;;;;;;;8.43;7.27;;;18.00;99.90;;;;;;5021935;28;20503;-64
2021/04/24 11:12:48;;;;;;;7.73;6.93;;;18.00;99.90;;;;;;5027063;28;20182;-64
2021/04/24 11:15:16;;;;;;;8.13;7.33;;;17.80;99.90;;;;;;5027361;28;20440;-64
2021/04/24 11:17:43;;;;;;;8.27;7.40;;;18.00;99.90;;;;;;5027506;28;20902;-64
2021/04/24 11:20:10;;;;;;;8.13;7.07;;;17.90;99.90;;;;;;5029561;28;20427;-64
2021/04/24 11:22:42;;;;;;;7.33;6.60;;;17.80;99.90;;;;;;5031814;28;20420;-63
2021/04/24 11:25:17;;;;;;;8.07;7.27;;;17.90;99.90;;;;;;5031202;28;20438;-64
2021/04/24 11:28:09;;;;;;;8.33;7.13;;;17.80;99.90;;;;;;5032504;28;20926;-63
2021/04/24 11:31:05;;;;;;;8.20;7.40;;;17.40;99.90;;;;;;5030925;28;20468;-64
2021/04/24 11:33:34;;;;;;;9.83;7.90;;;16.90;99.90;;;;;;5031704;28;20425;-63
2021/04/24 11:41:33;;;;;;;9.20;7.77;;;15.80;99.90;;;;;;5015723;28;20530;-64
2021/04/24 11:44:26;;;;;;;9.43;7.60;;;15.60;99.90;;;;;;5031551;28;20423;-64
2021/04/24 11:46:58;;;;;;;8.87;7.93;;;15.30;99.90;;;;;;5030819;28;20963;-64
2021/04/24 11:49:24;;;;;;;11.57;8.17;;;14.90;99.90;;;;;;5031720;28;20919;-64
2021/04/24 11:51:58;;;;;;;9.17;8.27;;;14.60;99.90;;;;;;5030830;28;20432;-64
2021/04/24 11:54:37;;;;;;;10.60;7.57;;;14.60;99.90;;;;;;5031237;28;20159;-62
2021/04/24 11:57:16;;;;;;;11.50;8.60;;;14.60;99.90;;;;;;5029938;28;20491;-63
2021/04/24 11:59:43;;;;;;;9.00;8.10;;;14.50;99.90;;;;;;5031426;28;20478;-63
2021/04/24 12:02:30;;;;;;;9.80;7.90;;;14.30;99.90;;;;;;5031004;28;20950;-64
2021/04/24 12:05:02;;;;;;;8.43;7.53;;;14.40;99.90;;;;;;5031949;28;20786;-64
2021/04/24 12:07:29;;;;;;;7.80;6.83;;;14.40;99.90;;;;;;5028197;28;20429;-64
2021/04/24 12:10:02;;;;;;;9.13;7.70;;;14.60;99.90;;;;;;5030998;28;20903;-64
2021/04/24 12:12:47;;;;;;;7.63;6.80;;;14.50;99.90;;;;;;5030801;28;20435;-60
2021/04/24 12:15:21;;;;;;;9.07;8.17;;;14.50;99.90;;;;;;5040300;28;21127;-60
2021/04/24 12:17:54;;;;;;;8.60;7.70;;;14.80;99.90;;;;;;5030551;28;20459;-60
2021/04/24 12:20:31;;;;;;;8.97;8.07;;;14.50;99.90;;;;;;5030100;28;20587;-59
2021/04/24 12:23:02;;;;;;;9.47;8.47;;;14.40;99.90;;;;;;5031330;28;20417;-59
2021/04/24 12:25:30;;;;;;;8.60;7.40;;;14.30;99.90;;;;;;5030117;28;20794;-60
2021/04/24 12:27:57;;;;;;;10.40;7.50;;;14.50;99.90;;;;;;5030319;28;20426;-60
2021/04/24 12:30:31;;;;;;;9.37;8.03;;;14.70;99.90;;;;;;5030303;28;21091;-59
2021/04/24 12:33:19;;;;;;;8.60;7.47;;;14.80;99.90;;;;;;5031096;28;20907;-59
2021/04/24 12:35:47;;;;;;;10.40;8.23;;;14.90;99.90;;;;;;5029897;28;20433;-59
2021/04/24 12:38:20;;;;;;;8.43;7.63;;;14.70;99.90;;;;;;5030628;28;20766;-59
2021/04/24 12:40:50;;;;;;;9.37;8.30;;;14.40;99.90;;;;;;5030386;28;20499;-60
2021/04/24 12:43:22;;;;;;;9.43;8.53;;;14.40;99.90;;;;;;5029803;28;20773;-60
2021/04/24 12:45:50;;;;;;;10.83;9.20;;;14.50;99.90;;;;;;5017626;28;20420;-60
2021/04/24 12:48:21;;;;;;;10.23;8.80;;;14.30;99.90;;;;;;5030889;28;20480;-60
2021/04/24 12:50:49;;;;;;;11.73;10.23;;;14.50;99.90;;;;;;5029190;28;20515;-60
2021/04/24 12:53:40;;;;;;;9.83;8.70;;;15.10;99.90;;;;;;5029583;28;20417;-60